createdAt,value
2019-03-21T00:01:46.083Z,12.50
2019-03-21T00:04:16.034Z,12.37
2019-03-21T00:06:45.780Z,11.53
2019-03-21T00:09:17.597Z,12.03
2019-03-21T00:12:04.480Z,12.80
2019-03-21T00:14:43.278Z,11.70
2019-03-21T00:17:14.827Z,13.30
2019-03-21T00:19:44.624Z,11.80
2019-03-21T00:22:14.777Z,12.97
2019-03-21T00:24:44.853Z,12.73
2019-03-21T00:27:14.667Z,12.00
2019-03-21T00:29:44.910Z,11.87
2019-03-21T00:32:15.043Z,12.70
2019-03-21T00:34:44.737Z,12.67
2019-03-21T00:37:14.490Z,13.03
2019-03-21T00:39:44.220Z,12.93
2019-03-21T00:42:14.792Z,12.37
2019-03-21T00:44:44.591Z,13.10
2019-03-21T00:47:14.761Z,13.23
2019-03-21T00:49:47.306Z,13.75
2019-03-21T00:52:20.583Z,13.33
2019-03-21T00:54:50.835Z,13.50
2019-03-21T00:57:20.654Z,12.90
2019-03-21T00:59:50.463Z,12.28
2019-03-21T01:02:20.331Z,14.33
2019-03-21T01:04:50.093Z,12.77
2019-03-21T01:07:19.890Z,11.75
2019-03-21T01:09:50.135Z,11.70
2019-03-21T01:12:23.891Z,25.17
2019-03-21T01:14:54.097Z,15.90
2019-03-21T01:17:23.876Z,16.57
2019-03-21T01:19:53.704Z,52.00
2019-03-21T01:22:23.563Z,17.92
2019-03-21T01:24:53.395Z,14.03
2019-03-21T01:27:23.848Z,13.60
2019-03-21T01:29:53.936Z,14.10
2019-03-21T01:32:23.771Z,12.53
2019-03-21T01:34:53.756Z,13.70
2019-03-21T01:37:24.343Z,12.77
2019-03-21T01:40:01.554Z,12.70
2019-03-21T01:42:31.452Z,13.00
2019-03-21T01:45:01.246Z,16.47
2019-03-21T01:47:31.059Z,14.43
2019-03-21T01:50:00.843Z,14.65
2019-03-21T01:52:30.996Z,14.67
2019-03-21T01:55:00.757Z,12.25
2019-03-21T01:57:31.340Z,12.82
2019-03-21T02:00:01.704Z,12.63
2019-03-21T02:02:32.327Z,12.80
2019-03-21T02:05:02.159Z,12.60
2019-03-21T02:07:31.949Z,12.60
2019-03-21T02:10:02.125Z,11.50
2019-03-21T02:12:32.693Z,11.80
2019-03-21T02:15:03.256Z,11.20
2019-03-21T02:17:36.151Z,11.23
2019-03-21T02:20:06.455Z,11.70
2019-03-21T02:22:36.363Z,10.93
2019-03-21T02:25:08.542Z,12.43
2019-03-21T02:27:38.338Z,11.87
2019-03-21T02:30:11.034Z,11.83
2019-03-21T02:32:40.987Z,11.70
2019-03-21T02:35:10.769Z,12.63
2019-03-21T02:37:40.956Z,12.80
2019-03-21T02:40:13.620Z,13.72
2019-03-21T02:42:43.415Z,13.55
2019-03-21T02:45:14.662Z,14.00
2019-03-21T02:47:46.111Z,13.37
2019-03-21T02:50:21.928Z,13.97
2019-03-21T02:52:51.715Z,13.27
2019-03-21T02:55:21.855Z,13.70
2019-03-21T02:57:52.342Z,13.40
2019-03-21T03:00:23.359Z,13.00
2019-03-21T03:02:55.388Z,13.87
2019-03-21T03:05:26.675Z,13.60
2019-03-21T03:07:56.722Z,12.15
2019-03-21T03:10:36.947Z,12.30
2019-03-21T03:13:06.810Z,13.23
2019-03-21T03:15:37.022Z,13.80
2019-03-21T03:18:07.685Z,14.03
2019-03-21T03:20:37.569Z,14.15
2019-03-21T03:23:07.688Z,13.57
2019-03-21T03:25:37.609Z,13.80
2019-03-21T03:28:11.319Z,14.30
2019-03-21T03:30:41.322Z,13.03
2019-03-21T03:33:11.211Z,13.10
2019-03-21T03:35:41.040Z,14.30
2019-03-21T03:38:15.432Z,13.78
2019-03-21T03:40:50.281Z,13.10
2019-03-21T03:43:21.371Z,12.70
2019-03-21T03:45:51.191Z,14.23
2019-03-21T03:48:21.355Z,13.60
2019-03-21T03:50:51.214Z,14.30
2019-03-21T03:53:21.004Z,13.90
2019-03-21T03:55:51.163Z,14.00
2019-03-21T03:58:26.292Z,12.63
2019-03-21T04:00:57.732Z,12.93
2019-03-21T04:03:27.520Z,13.85
2019-03-21T04:05:57.367Z,13.50
2019-03-21T04:08:27.117Z,13.83
2019-03-21T04:10:57.095Z,14.00
2019-03-21T04:13:26.778Z,12.57
2019-03-21T04:15:56.557Z,13.40
2019-03-21T04:18:34.729Z,13.90
2019-03-21T04:21:05.165Z,12.93
2019-03-21T04:23:45.295Z,13.43
2019-03-21T04:26:24.272Z,14.00
2019-03-21T04:28:54.063Z,13.27
2019-03-21T04:31:24.637Z,13.55
2019-03-21T04:33:56.143Z,12.50
2019-03-21T04:36:25.866Z,13.40
2019-03-21T04:38:55.983Z,13.37
2019-03-21T04:41:25.806Z,13.50
2019-03-21T04:43:55.651Z,12.87
2019-03-21T04:46:25.465Z,12.85
2019-03-21T04:49:05.027Z,13.27
2019-03-21T04:51:42.065Z,13.20
2019-03-21T04:54:11.763Z,12.97
2019-03-21T04:56:41.595Z,12.40
2019-03-21T04:59:11.384Z,13.53
2019-03-21T05:01:41.143Z,13.97
2019-03-21T05:04:10.887Z,13.90
2019-03-21T05:06:40.562Z,13.68
2019-03-21T05:09:13.967Z,14.30
2019-03-21T05:11:43.772Z,13.70
2019-03-21T05:14:13.540Z,13.90
2019-03-21T05:16:50.389Z,14.03
2019-03-21T05:19:19.949Z,14.68
2019-03-21T05:21:50.166Z,12.98
2019-03-21T05:24:20.422Z,14.83
2019-03-21T05:26:50.611Z,16.00
2019-03-21T05:29:20.428Z,14.93
2019-03-21T05:31:50.180Z,15.37
2019-03-21T05:34:19.913Z,13.40
2019-03-21T05:36:50.514Z,14.00
2019-03-21T05:39:20.636Z,13.40
2019-03-21T05:41:58.777Z,14.23
2019-03-21T05:44:35.712Z,13.35
2019-03-21T05:47:05.576Z,15.13
2019-03-21T05:49:35.446Z,13.83
2019-03-21T05:52:06.076Z,13.90
2019-03-21T05:54:35.833Z,13.83
2019-03-21T05:57:06.276Z,12.73
2019-03-21T05:59:36.116Z,13.97
2019-03-21T06:02:06.181Z,12.95
2019-03-21T06:04:35.994Z,12.57
2019-03-21T06:07:18.736Z,13.50
2019-03-21T06:09:48.480Z,13.30
2019-03-21T06:12:18.312Z,14.77
2019-03-21T06:14:52.535Z,14.77
2019-03-21T06:17:22.460Z,12.67
2019-03-21T06:20:19.471Z,13.10
2019-03-21T06:23:35.859Z,13.07
2019-03-21T06:26:20.224Z,13.23
2019-03-21T06:28:51.233Z,14.23
2019-03-21T06:31:21.064Z,15.03
2019-03-21T06:33:50.887Z,12.70
2019-03-21T06:36:20.746Z,13.28
2019-03-21T06:38:50.747Z,15.20
2019-03-21T06:41:20.663Z,14.20
2019-03-21T06:43:50.746Z,14.10
2019-03-21T06:46:21.343Z,12.47
2019-03-21T06:48:51.244Z,13.33
2019-03-21T06:51:21.161Z,13.50
2019-03-21T06:53:54.713Z,13.23
2019-03-21T06:56:24.890Z,12.63
2019-03-21T06:58:54.698Z,12.82
2019-03-21T07:01:24.585Z,14.30
2019-03-21T07:03:54.335Z,12.90
2019-03-21T07:06:24.220Z,14.80
2019-03-21T07:08:53.951Z,15.80
2019-03-21T07:11:23.623Z,14.25
2019-03-21T07:13:57.637Z,13.80
2019-03-21T07:16:28.325Z,13.77
2019-03-21T07:18:58.487Z,14.43
2019-03-21T07:21:28.625Z,13.77
2019-03-21T07:23:58.339Z,14.80
2019-03-21T07:26:29.519Z,13.87
2019-03-21T07:29:01.399Z,13.77
2019-03-21T07:31:31.167Z,14.37
2019-03-21T07:34:00.919Z,15.30
2019-03-21T07:36:30.883Z,13.90
2019-03-21T07:39:00.626Z,14.20
2019-03-21T07:41:30.374Z,14.73
2019-03-21T07:44:11.992Z,14.00
2019-03-21T07:46:44.518Z,14.18
2019-03-21T07:49:14.691Z,13.50
2019-03-21T07:51:45.234Z,14.65
2019-03-21T07:54:15.096Z,14.43
2019-03-21T07:56:44.781Z,14.17
2019-03-21T07:59:14.915Z,13.80
2019-03-21T08:01:45.003Z,14.37
2019-03-21T08:04:14.726Z,13.53
2019-03-21T08:06:44.496Z,12.43
2019-03-21T08:09:18.839Z,14.50
2019-03-21T08:11:54.880Z,12.60
2019-03-21T08:14:24.719Z,14.73
2019-03-21T08:16:54.446Z,14.50
2019-03-21T08:19:25.806Z,14.50
2019-03-21T08:21:55.458Z,14.63
2019-03-21T08:24:26.286Z,14.23
2019-03-21T08:26:56.042Z,14.30
2019-03-21T08:29:25.838Z,13.30
2019-03-21T08:31:57.462Z,14.73
2019-03-21T08:34:31.054Z,13.80
2019-03-21T08:37:00.771Z,14.07
2019-03-21T08:39:31.531Z,14.40
2019-03-21T08:42:01.291Z,13.40
2019-03-21T08:44:30.978Z,12.77
2019-03-21T08:47:00.688Z,14.97
2019-03-21T08:49:30.436Z,13.83
2019-03-21T08:52:00.142Z,13.97
2019-03-21T08:54:29.831Z,15.30
2019-03-21T08:57:00.592Z,15.05
2019-03-21T08:59:31.683Z,14.03
2019-03-21T09:02:02.944Z,14.63
2019-03-21T09:04:32.607Z,13.65
2019-03-21T09:07:02.299Z,12.80
2019-03-21T09:09:32.048Z,12.90
2019-03-21T09:12:01.780Z,13.47
2019-03-21T09:14:31.529Z,13.60
2019-03-21T09:17:02.255Z,13.50
2019-03-21T09:19:32.010Z,12.57
2019-03-21T09:22:06.733Z,13.33
2019-03-21T09:24:37.243Z,13.43
2019-03-21T09:27:06.947Z,13.60
2019-03-21T09:29:37.266Z,13.03
2019-03-21T09:32:07.150Z,11.97
2019-03-21T09:34:38.162Z,12.50
2019-03-21T09:37:07.904Z,13.47
2019-03-21T09:39:37.716Z,11.73
2019-03-21T09:42:08.376Z,11.80
2019-03-21T09:44:38.630Z,12.60
2019-03-21T09:47:10.130Z,12.83
2019-03-21T09:49:49.916Z,10.67
2019-03-21T09:52:19.684Z,11.47
2019-03-21T09:54:49.405Z,11.23
2019-03-21T09:57:19.092Z,10.38
2019-03-21T09:59:49.971Z,10.40
2019-03-21T10:02:19.855Z,9.95
2019-03-21T10:04:49.703Z,10.03
2019-03-21T10:07:20.300Z,10.40
2019-03-21T10:09:50.445Z,10.30
2019-03-21T10:12:24.475Z,9.20
2019-03-21T10:14:54.242Z,10.03
2019-03-21T10:17:25.052Z,10.37
2019-03-21T10:19:54.807Z,10.60
2019-03-21T10:22:24.975Z,9.60
2019-03-21T10:24:54.745Z,9.70
2019-03-21T10:27:24.508Z,9.10
2019-03-21T10:29:54.643Z,8.67
2019-03-21T10:32:24.616Z,8.93
2019-03-21T10:34:54.794Z,7.13
2019-03-21T10:37:28.958Z,7.30
2019-03-21T10:39:58.788Z,6.55
2019-03-21T10:42:28.899Z,6.97
2019-03-21T10:44:58.901Z,7.83
2019-03-21T10:47:29.031Z,8.17
2019-03-21T10:49:59.440Z,7.67
2019-03-21T10:52:29.199Z,7.73
2019-03-21T10:54:59.196Z,7.30
2019-03-21T10:57:28.888Z,8.50
2019-03-21T11:00:01.745Z,7.53
2019-03-21T11:02:36.844Z,6.25
2019-03-21T11:05:07.011Z,6.70
2019-03-21T11:07:38.263Z,6.60
2019-03-21T11:10:08.690Z,7.60
2019-03-21T11:12:38.401Z,5.50
2019-03-21T11:15:08.547Z,6.70
2019-03-21T11:17:38.356Z,6.00
2019-03-21T11:20:08.914Z,6.40
2019-03-21T11:22:40.791Z,5.43
2019-03-21T11:25:26.642Z,5.90
2019-03-21T11:27:56.578Z,5.30
2019-03-21T11:30:31.267Z,5.20
2019-03-21T11:33:02.151Z,5.70
2019-03-21T11:35:32.266Z,5.90
2019-03-21T11:38:02.409Z,6.03
2019-03-21T11:40:32.558Z,6.00
2019-03-21T11:43:03.410Z,4.70
2019-03-21T11:45:33.180Z,6.45
2019-03-21T11:48:07.421Z,5.40
2019-03-21T11:50:42.479Z,5.13
2019-03-21T11:53:12.663Z,6.00
2019-03-21T11:55:42.458Z,5.50
2019-03-21T11:58:12.280Z,5.43
2019-03-21T12:00:44.888Z,4.60
2019-03-21T12:03:14.059Z,5.77
2019-03-21T12:05:43.868Z,5.70
2019-03-21T12:08:13.680Z,5.67
2019-03-21T12:10:46.631Z,6.40
2019-03-21T12:13:16.337Z,5.60
2019-03-21T12:15:46.967Z,5.80
2019-03-21T12:18:17.415Z,5.53
2019-03-21T12:20:47.211Z,5.67
2019-03-21T12:23:16.967Z,5.17
2019-03-21T12:25:46.942Z,5.80
2019-03-21T12:28:16.743Z,5.50
2019-03-21T12:30:46.913Z,5.95
2019-03-21T12:33:17.000Z,6.10
2019-03-21T12:35:46.756Z,5.30
2019-03-21T12:38:17.022Z,5.80
2019-03-21T12:40:46.807Z,6.00
2019-03-21T12:43:16.529Z,5.70
2019-03-21T12:45:46.297Z,5.70
2019-03-21T12:48:16.492Z,5.33
2019-03-21T12:50:46.271Z,5.40
2019-03-21T12:53:16.111Z,6.20
2019-03-21T12:55:45.983Z,6.40
2019-03-21T12:58:15.692Z,5.78
2019-03-21T13:00:45.823Z,5.00
2019-03-21T13:03:15.987Z,5.47
2019-03-21T13:05:45.842Z,5.70
2019-03-21T13:08:17.116Z,5.30
2019-03-21T13:10:46.849Z,6.23
2019-03-21T13:13:16.725Z,6.00
2019-03-21T13:15:48.144Z,6.07
2019-03-21T13:18:18.600Z,5.73
2019-03-21T13:20:48.809Z,6.20
2019-03-21T13:23:18.600Z,5.23
2019-03-21T13:25:48.255Z,6.27
2019-03-21T13:28:20.156Z,6.15
2019-03-21T13:30:56.325Z,5.37
2019-03-21T13:33:26.119Z,5.80
2019-03-21T13:35:56.084Z,5.20
2019-03-21T13:38:26.294Z,5.90
2019-03-21T13:40:56.404Z,5.90
2019-03-21T13:43:26.658Z,6.60
2019-03-21T13:45:56.879Z,6.60
2019-03-21T13:48:26.895Z,6.67
2019-03-21T13:50:56.686Z,6.65
2019-03-21T13:53:31.139Z,6.50
2019-03-21T13:56:01.010Z,6.93
2019-03-21T13:58:31.042Z,6.00
2019-03-21T14:01:25.989Z,7.40
2019-03-21T14:03:55.767Z,6.47
2019-03-21T14:06:25.632Z,7.13
2019-03-21T14:08:55.912Z,6.90
2019-03-21T14:11:25.932Z,7.05
2019-03-21T14:14:01.928Z,7.13
2019-03-21T14:16:32.152Z,6.20
2019-03-21T14:19:01.976Z,6.50
2019-03-21T14:21:32.143Z,6.95
2019-03-21T14:24:03.267Z,7.47
2019-03-21T14:26:33.128Z,6.87
2019-03-21T14:29:12.200Z,7.10
2019-03-21T14:31:34.382Z,6.20
2019-03-21T14:34:04.151Z,7.10
2019-03-21T14:36:33.955Z,6.87
2019-03-21T14:39:05.691Z,6.10
2019-03-21T14:41:35.572Z,6.00
2019-03-21T14:44:07.122Z,5.80
2019-03-21T14:46:37.149Z,5.47
2019-03-21T14:49:06.888Z,6.00
2019-03-21T14:51:36.735Z,5.62
2019-03-21T14:54:06.599Z,5.25
2019-03-21T14:56:36.424Z,5.20
2019-03-21T14:59:06.280Z,5.63
2019-03-21T15:01:35.989Z,5.47
2019-03-21T15:04:05.694Z,5.67
2019-03-21T15:06:35.437Z,5.63
2019-03-21T15:09:07.194Z,4.73
2019-03-21T15:11:37.037Z,5.70
2019-03-21T15:14:06.991Z,5.60
2019-03-21T15:16:36.872Z,4.90
2019-03-21T15:19:06.697Z,4.75
2019-03-21T15:21:36.417Z,4.97
2019-03-21T15:24:06.552Z,5.10
2019-03-21T15:26:36.323Z,4.97
2019-03-21T15:29:06.059Z,4.80
2019-03-21T15:31:35.824Z,5.03
2019-03-21T15:34:07.347Z,5.10
2019-03-21T15:36:37.110Z,5.70
2019-03-21T15:39:08.607Z,5.70
2019-03-21T15:41:38.957Z,5.90
2019-03-21T15:44:09.261Z,5.63
2019-03-21T15:46:39.072Z,6.57
2019-03-21T15:49:09.318Z,6.08
2019-03-21T15:51:39.586Z,6.67
2019-03-21T15:54:09.471Z,6.00
2019-03-21T15:56:39.315Z,5.87
2019-03-21T15:59:09.169Z,7.30
2019-03-21T16:01:38.924Z,6.10
2019-03-21T16:04:08.643Z,6.77
2019-03-21T16:06:38.591Z,5.50
2019-03-21T16:09:08.912Z,5.92
2019-03-21T16:11:38.678Z,4.97
2019-03-21T16:14:08.980Z,6.47
2019-03-21T16:16:38.786Z,5.47
2019-03-21T16:19:08.499Z,6.13
2019-03-21T16:21:41.882Z,5.23
2019-03-21T16:24:11.698Z,5.77
2019-03-21T16:26:41.963Z,6.37
2019-03-21T16:29:13.072Z,5.80
2019-03-21T16:31:43.118Z,6.17
2019-03-21T16:34:12.903Z,6.35
2019-03-21T16:36:44.173Z,5.40
2019-03-21T16:39:16.695Z,6.20
2019-03-21T16:41:47.963Z,6.30
2019-03-21T16:44:17.996Z,6.53
2019-03-21T16:46:48.017Z,6.23
2019-03-21T16:49:17.711Z,6.20
2019-03-21T16:51:47.685Z,6.87
2019-03-21T16:54:17.840Z,6.40
2019-03-21T16:56:47.837Z,7.13
2019-03-21T16:59:17.752Z,6.10
2019-03-21T17:01:47.449Z,5.92
2019-03-21T17:04:17.417Z,5.83
2019-03-21T17:06:47.367Z,6.17
2019-03-21T17:09:17.429Z,6.83
2019-03-21T17:11:48.736Z,5.90
2019-03-21T17:14:18.866Z,6.28
2019-03-21T17:16:49.022Z,7.63
2019-03-21T17:19:19.193Z,7.57
2019-03-21T17:21:48.958Z,6.47
2019-03-21T17:24:28.816Z,7.35
2019-03-21T17:26:50.175Z,5.80
2019-03-21T17:29:20.150Z,6.60
2019-03-21T17:31:49.883Z,6.60
2019-03-21T17:34:19.600Z,6.90
2019-03-21T17:36:49.516Z,6.50
2019-03-21T17:39:19.478Z,6.95
2019-03-21T17:41:50.044Z,7.55
2019-03-21T17:44:19.899Z,7.27
2019-03-21T17:46:51.406Z,7.80
2019-03-21T17:49:21.297Z,6.70
2019-03-21T17:51:51.213Z,7.62
2019-03-21T17:54:21.564Z,7.87
2019-03-21T17:56:51.416Z,7.43
2019-03-21T17:59:21.210Z,8.33
2019-03-21T18:01:51.879Z,9.43
2019-03-21T18:04:22.619Z,8.40
2019-03-21T18:06:52.300Z,7.80
2019-03-21T18:09:22.119Z,7.70
2019-03-21T18:11:51.872Z,8.07
2019-03-21T18:14:22.514Z,8.57
2019-03-21T18:16:52.768Z,8.30
2019-03-21T18:19:24.323Z,9.83
2019-03-21T18:21:54.291Z,8.57
2019-03-21T18:24:24.985Z,8.70
2019-03-21T18:26:54.984Z,7.87
2019-03-21T18:29:24.751Z,8.83
2019-03-21T18:31:54.539Z,8.37
2019-03-21T18:34:24.432Z,8.87
2019-03-21T18:36:55.447Z,8.70
2019-03-21T18:39:25.541Z,9.90
2019-03-21T18:41:55.707Z,8.33
2019-03-21T18:44:25.526Z,7.53
2019-03-21T18:46:57.312Z,8.33
2019-03-21T18:49:28.484Z,8.23
2019-03-21T18:51:58.540Z,8.83
2019-03-21T18:54:28.266Z,8.93
2019-03-21T18:56:58.476Z,9.10
2019-03-21T18:59:28.527Z,9.30
2019-03-21T19:01:59.072Z,8.77
2019-03-21T19:04:29.884Z,9.27
2019-03-21T19:06:59.865Z,8.23
2019-03-21T19:09:29.846Z,8.28
2019-03-21T19:11:59.946Z,8.20
2019-03-21T19:14:29.872Z,13.62
2019-03-21T19:16:59.815Z,17.52
2019-03-21T19:19:29.502Z,10.20
2019-03-21T19:21:59.255Z,7.60
2019-03-21T19:24:29.319Z,7.30
2019-03-21T19:26:59.079Z,9.23
2019-03-21T19:29:28.975Z,8.30
2019-03-21T19:31:58.760Z,8.43
2019-03-21T19:34:28.505Z,7.07
2019-03-21T19:36:58.328Z,7.10
2019-03-21T19:39:28.279Z,6.77
2019-03-21T19:41:59.479Z,7.23
2019-03-21T19:44:29.424Z,7.60
2019-03-21T19:47:01.346Z,8.53
2019-03-21T19:49:30.947Z,6.90
2019-03-21T19:52:02.189Z,6.40
2019-03-21T19:54:31.935Z,8.00
2019-03-21T19:57:01.753Z,6.62
2019-03-21T19:59:32.096Z,5.10
2019-03-21T20:02:01.933Z,5.50
2019-03-21T20:04:31.676Z,5.17
2019-03-21T20:07:01.534Z,5.87
2019-03-21T20:09:31.348Z,5.90
2019-03-21T20:12:01.164Z,5.30
2019-03-21T20:14:31.032Z,6.17
2019-03-21T20:17:00.848Z,5.80
2019-03-21T20:19:30.654Z,6.80
2019-03-21T20:22:00.807Z,6.80
2019-03-21T20:24:30.657Z,7.22
2019-03-21T20:27:00.963Z,6.10
2019-03-21T20:29:30.704Z,6.17
2019-03-21T20:32:00.703Z,6.60
2019-03-21T20:34:30.538Z,8.37
2019-03-21T20:37:00.747Z,8.77
2019-03-21T20:39:30.912Z,11.63
2019-03-21T20:42:01.011Z,12.37
2019-03-21T20:44:32.221Z,11.37
2019-03-21T20:47:02.636Z,11.13
2019-03-21T20:49:32.997Z,12.37
2019-03-21T20:52:02.824Z,10.20
2019-03-21T20:54:32.584Z,11.57
2019-03-21T20:57:02.638Z,10.20
2019-03-21T20:59:32.433Z,11.67
2019-03-21T21:02:03.185Z,10.97
2019-03-21T21:04:33.156Z,10.03
2019-03-21T21:07:02.982Z,9.30
2019-03-21T21:09:32.864Z,8.40
2019-03-21T21:12:03.427Z,9.10
2019-03-21T21:14:33.316Z,8.13
2019-03-21T21:17:03.199Z,8.40
2019-03-21T21:19:33.463Z,8.70
2019-03-21T21:22:03.292Z,8.73
2019-03-21T21:24:33.008Z,8.37
2019-03-21T21:27:03.099Z,8.63
2019-03-21T21:29:32.903Z,7.50
2019-03-21T21:32:02.753Z,9.25
2019-03-21T21:34:32.627Z,8.33
2019-03-21T21:37:02.393Z,10.80
2019-03-21T21:39:32.327Z,9.47
2019-03-21T21:42:05.222Z,11.80
2019-03-21T21:44:35.146Z,10.57
2019-03-21T21:47:04.964Z,11.70
2019-03-21T21:49:34.816Z,12.40
2019-03-21T21:52:04.607Z,12.87
2019-03-21T21:54:34.455Z,13.00
2019-03-21T21:57:04.253Z,14.77
2019-03-21T21:59:34.753Z,15.27
2019-03-21T22:02:05.262Z,16.35
2019-03-21T22:04:35.253Z,15.60
2019-03-21T22:07:09.374Z,15.75
2019-03-21T22:09:40.952Z,15.20
2019-03-21T22:12:10.791Z,14.93
2019-03-21T22:14:43.989Z,14.90
2019-03-21T22:17:14.741Z,14.90
2019-03-21T22:19:55.447Z,12.20
2019-03-21T22:22:25.309Z,12.93
2019-03-21T22:24:55.112Z,15.10
2019-03-21T22:27:26.236Z,15.67
2019-03-21T22:29:57.250Z,13.77
2019-03-21T22:32:27.236Z,13.70
2019-03-21T22:34:57.153Z,14.47
2019-03-21T22:37:26.952Z,12.50
2019-03-21T22:39:56.883Z,12.20
2019-03-21T22:42:26.977Z,11.03
2019-03-21T22:45:00.877Z,11.50
2019-03-21T22:47:30.798Z,9.90
2019-03-21T22:50:00.606Z,10.43
2019-03-21T22:52:31.029Z,12.60
2019-03-21T22:55:04.583Z,16.17
2019-03-21T22:57:53.002Z,17.45
2019-03-21T23:00:30.081Z,16.80
2019-03-21T23:03:09.101Z,17.00
2019-03-21T23:05:39.654Z,14.93
2019-03-21T23:08:13.048Z,14.90
2019-03-21T23:10:45.148Z,14.73
2019-03-21T23:13:19.759Z,11.50
2019-03-21T23:15:49.603Z,12.18
2019-03-21T23:18:19.639Z,9.03
2019-03-21T23:20:49.735Z,9.10
2019-03-21T23:23:20.388Z,8.90
2019-03-21T23:25:50.222Z,8.00
2019-03-21T23:28:20.021Z,9.73
2019-03-21T23:30:49.856Z,8.83
2019-03-21T23:33:19.576Z,8.67
2019-03-21T23:35:49.309Z,8.50
2019-03-21T23:38:19.120Z,9.10
2019-03-21T23:40:48.821Z,9.53
2019-03-21T23:43:18.635Z,14.80
2019-03-21T23:45:48.747Z,14.60
2019-03-21T23:48:18.537Z,15.67
2019-03-21T23:50:48.341Z,13.73
2019-03-21T23:53:18.183Z,13.90
2019-03-21T23:55:48.347Z,14.17
2019-03-21T23:58:18.198Z,12.77
